Bennington, Nebraska
Current Conditions -  °F | °C
As of 8:15 AM on Wednesday 28 Jan 2015 (Local Time) from KBTA Reporting Station
Clear Clear  
Wind Chill: 27°   Ceiling: Unl
Heat Index: 34°   Visibility: 10mi
Dew Point: 30°   Wind: 8mph
Humidity: 85%   Direction: 130°SE
Pressure: 29.84"   Gusts: NA
Location:  41.36°N, 96.16°W
Report Text: KBTA 281415Z AUTO 13007KT 10SM CLR 01/M01 A2984 RMK AO2 T00101012
Loading
Personal Weather Stations






























Interactive Weather Map New forecast layout! Learn more

10-Day Weather Forecast

Advertisements
Track Severe Weather on mobile